Nearby METAR Reports

 

KRYN - Tucson/Ryan Fld, Arizona, USA
Distance from station: SSW 16mi, 26km
Updated: Wed, 05-Oct-2022 8:00pm MST
NOT Current
Nearby thunderstorm, Few clouds
Nearby thunderstorm, Few clouds
 Wind from SE
Wind: SE 9 mph , 15 km/h
Temperature: 75°F , 24°C
Dew Point: 50°F , 10°C
Humidity: 41%
Barometer: 30.03 inHg , 1016.9 hPa
Summary: Nearby Thunderstorm
Clouds: Few Clouds
Visibility: 10 miles , 16 km
Cloud details: Few Clouds 11000 ft
2022/10/06 03:00 KRYN 060300Z 13008KT 10SM VCTS FEW110 24/10 A3003 RMK LAST
KTUS - Tucson, Arizona, USA
Distance from station: SSE 18mi, 28km
Updated: Thu, 06-Oct-2022 12:53am MST
Clear
Clear
 Wind from SSE
Wind: SSE 7 mph , 11 km/h
Temperature: 66°F , 19°C
Dew Point: 54°F , 12°C
Humidity: 64%
Barometer: 30.09 inHg , 1019 hPa
Clouds: Clear
Visibility: 10 miles , 16 km
2022/10/06 07:53 KTUS 060753Z 16006KT 10SM CLR 19/12 A3009 RMK AO2 SLP149 T01940122
 
KDMA - Davis/Tucson, Arizona, USA
Distance from station: SE 18mi, 29km
Updated: Thu, 06-Oct-2022 12:55am MST
Few Clouds
Few Clouds
 Wind from SSE
Wind: SSE 9 mph , 15 km/h
Temperature: 66°F , 19°C
Dew Point: 54°F , 12°C
Humidity: 64%
Barometer: 30.07 inHg , 1018.3 hPa
Clouds: Few Clouds
Visibility: 10 miles , 16 km
Cloud details: Few Clouds 14000 ft
2022/10/06 07:55 KDMA 060755Z AUTO 16008KT 10SM FEW140 19/12 A3007 RMK AO2 SLP187 T01850118 $
KCGZ - Casa Granda, Arizona, USA
Distance from station: NW 57mi, 92km
Updated: Thu, 06-Oct-2022 12:56am MST
Clear
Clear
 Wind from W
Wind: W 3 mph , 6 km/h
Temperature: 75°F , 24°C
Dew Point: 54°F , 12°C
Humidity: 47%
Barometer: 30.01 inHg , 1016.3 hPa
Clouds: Clear
Visibility: 10 miles , 16 km
2022/10/06 07:56 KCGZ 060756Z AUTO 27003KT 10SM CLR 24/12 A3001 RMK AO2 LTG DSNT SW-NW SLP149 T02390117 $
 
KALK - Pioneer Airfield, Arizona, USA
Distance from station: SE 65mi, 104km
Updated: Thu, 06-Oct-2022 12:56am MST
Clear
Clear
 Wind from SSW
Wind: SSW 5 mph , 7 km/h
Temperature: 55°F , 13°C
Dew Point: 48°F , 9°C
Humidity: 77%
Barometer: 30.21 inHg , 1023 hPa
Clouds: Clear
Visibility: 10 miles , 16 km
2022/10/06 07:56 KALK 060756Z AUTO 21004KT 10SM CLR 13/09 A3021 RMK AO2 SLP155 T01330089
KOLS - Nogales, Arizona, USA
Distance from station: S 67mi, 108km
Updated: Thu, 06-Oct-2022 12:54am MST
Clear
Clear
 Wind from ENE
Wind: ENE 5 mph , 7 km/h
Temperature: 59°F , 15°C
Dew Point: 48°F , 9°C
Humidity: 68%
Barometer: 30.15 inHg , 1021 hPa
Clouds: Clear
Visibility: 10 miles , 16 km
2022/10/06 07:54 KOLS 060754Z AUTO 07004KT 10SM CLR 15/09 A3015 RMK AO2 SLP154 T01500089
 
KFHU - Fort Huachuca, Arizona, USA
Distance from station: SE 69mi, 110km
Updated: Thu, 06-Oct-2022 12:55am MST
Mostly cloudy
Mostly cloudy
 Wind from SW
Wind: SW 6 mph , 9 km/h
Temperature: 57°F , 14°C
Dew Point: 50°F , 10°C
Humidity: 77%
Barometer: 30.21 inHg , 1023 hPa
Clouds: Mostly cloudy
Visibility: 10 miles , 16 km
Cloud details: Mostly cloudy 11000 ft
2022/10/06 07:55 KFHU 060755Z AUTO 23005KT 10SM BKN110 14/10 A3021 RMK AO2 SLP191 T01440100
KIWA - Chandler/Mesa, Arizona, USA
Distance from station: NNW 73mi, 117km
Updated: Thu, 06-Oct-2022 1:15am MST
Mostly cloudy
Mostly cloudy
 Wind from SW
Wind: SW 8 mph , 13 km/h
Temperature: 77°F , 25°C
Dew Point: 52°F , 11°C
Humidity: 42%
Barometer: 30.03 inHg , 1016.9 hPa
Clouds: Mostly cloudy
Visibility: 10 miles , 16 km
Cloud details: Mostly cloudy 10000 ft
Mostly cloudy 12000 ft
2022/10/06 08:15 KIWA 060815Z AUTO 22007KT 10SM BKN100 BKN120 25/11 A3003 RMK AO2 LTG DSNT W T02510109